sensor_id;sensor_type;location;lat;lon;timestamp;P1;durP1;ratioP1;P2;durP2;ratioP2
58472;SDS011;44775;51.564;5.460;2023-03-20T00:00:03;19.55;;;9.70;;
58472;SDS011;44775;51.564;5.460;2023-03-20T00:02:33;27.48;;;10.35;;
58472;SDS011;44775;51.564;5.460;2023-03-20T00:04:58;20.83;;;10.00;;
58472;SDS011;44775;51.564;5.460;2023-03-20T00:07:25;20.70;;;9.77;;
58472;SDS011;44775;51.564;5.460;2023-03-20T00:09:51;19.50;;;10.02;;
58472;SDS011;44775;51.564;5.460;2023-03-20T00:12:17;22.42;;;10.52;;
58472;SDS011;44775;51.564;5.460;2023-03-20T00:14:47;20.73;;;10.20;;
58472;SDS011;44775;51.564;5.460;2023-03-20T00:17:13;21.17;;;10.32;;
58472;SDS011;44775;51.564;5.460;2023-03-20T00:19:44;21.08;;;10.57;;
58472;SDS011;44775;51.564;5.460;2023-03-20T00:22:10;22.88;;;10.38;;
58472;SDS011;44775;51.564;5.460;2023-03-20T00:24:36;22.75;;;10.98;;
58472;SDS011;44775;51.564;5.460;2023-03-20T00:27:02;21.55;;;10.20;;
58472;SDS011;44775;51.564;5.460;2023-03-20T00:29:29;21.38;;;10.10;;
58472;SDS011;44775;51.564;5.460;2023-03-20T00:31:57;21.35;;;10.57;;
58472;SDS011;44775;51.564;5.460;2023-03-20T00:34:24;20.27;;;11.65;;
58472;SDS011;44775;51.564;5.460;2023-03-20T00:36:53;23.95;;;11.07;;
58472;SDS011;44775;51.564;5.460;2023-03-20T00:39:20;19.15;;;10.95;;
58472;SDS011;44775;51.564;5.460;2023-03-20T00:41:53;23.35;;;10.70;;
58472;SDS011;44775;51.564;5.460;2023-03-20T00:44:21;22.27;;;10.27;;
58472;SDS011;44775;51.564;5.460;2023-03-20T00:47:32;25.63;;;10.93;;
58472;SDS011;44775;51.564;5.460;2023-03-20T00:49:48;25.33;;;11.15;;
58472;SDS011;44775;51.564;5.460;2023-03-20T00:52:17;24.15;;;10.90;;
58472;SDS011;44775;51.564;5.460;2023-03-20T00:54:43;19.58;;;10.20;;
58472;SDS011;44775;51.564;5.460;2023-03-20T00:57:23;18.88;;;9.60;;
58472;SDS011;44775;51.564;5.460;2023-03-20T00:59:59;22.35;;;10.32;;
58472;SDS011;44775;51.564;5.460;2023-03-20T01:02:29;24.17;;;10.55;;
58472;SDS011;44775;51.564;5.460;2023-03-20T01:04:54;21.05;;;10.95;;
58472;SDS011;44775;51.564;5.460;2023-03-20T01:07:21;22.13;;;10.13;;
58472;SDS011;44775;51.564;5.460;2023-03-20T01:09:46;24.50;;;11.05;;
58472;SDS011;44775;51.564;5.460;2023-03-20T01:12:12;26.90;;;11.35;;
58472;SDS011;44775;51.564;5.460;2023-03-20T01:14:38;28.60;;;12.73;;
58472;SDS011;44775;51.564;5.460;2023-03-20T01:17:04;25.52;;;12.32;;
58472;SDS011;44775;51.564;5.460;2023-03-20T01:19:34;30.50;;;12.73;;
58472;SDS011;44775;51.564;5.460;2023-03-20T01:22:00;26.13;;;12.75;;
58472;SDS011;44775;51.564;5.460;2023-03-20T01:24:26;24.83;;;12.02;;
58472;SDS011;44775;51.564;5.460;2023-03-20T01:26:52;28.17;;;13.32;;
58472;SDS011;44775;51.564;5.460;2023-03-20T01:29:19;27.75;;;13.23;;
58472;SDS011;44775;51.564;5.460;2023-03-20T01:31:47;23.48;;;12.10;;
58472;SDS011;44775;51.564;5.460;2023-03-20T01:34:13;27.23;;;13.18;;
58472;SDS011;44775;51.564;5.460;2023-03-20T01:36:40;31.10;;;12.43;;
58472;SDS011;44775;51.564;5.460;2023-03-20T01:39:09;24.13;;;12.93;;
58472;SDS011;44775;51.564;5.460;2023-03-20T01:41:35;26.33;;;13.48;;
58472;SDS011;44775;51.564;5.460;2023-03-20T01:44:00;27.65;;;13.32;;
58472;SDS011;44775;51.564;5.460;2023-03-20T01:46:42;28.08;;;13.13;;
58472;SDS011;44775;51.564;5.460;2023-03-20T01:51:43;27.08;;;13.90;;
58472;SDS011;44775;51.564;5.460;2023-03-20T01:54:13;28.05;;;13.30;;
58472;SDS011;44775;51.564;5.460;2023-03-20T01:56:53;29.63;;;13.57;;
58472;SDS011;44775;51.564;5.460;2023-03-20T01:59:31;31.60;;;13.55;;
58472;SDS011;44775;51.564;5.460;2023-03-20T02:02:00;31.00;;;14.35;;
58472;SDS011;44775;51.564;5.460;2023-03-20T02:04:30;29.58;;;13.85;;
58472;SDS011;44775;51.564;5.460;2023-03-20T02:07:01;30.30;;;13.95;;
58472;SDS011;44775;51.564;5.460;2023-03-20T02:09:27;29.17;;;13.90;;
58472;SDS011;44775;51.564;5.460;2023-03-20T02:11:52;30.17;;;14.70;;
58472;SDS011;44775;51.564;5.460;2023-03-20T02:14:19;31.38;;;13.90;;
58472;SDS011;44775;51.564;5.460;2023-03-20T02:16:46;33.17;;;15.02;;
58472;SDS011;44775;51.564;5.460;2023-03-20T02:19:15;28.25;;;14.82;;
58472;SDS011;44775;51.564;5.460;2023-03-20T02:22:06;33.35;;;14.93;;
58472;SDS011;44775;51.564;5.460;2023-03-20T02:24:46;32.15;;;16.40;;
58472;SDS011;44775;51.564;5.460;2023-03-20T02:41:18;35.58;;;17.13;;
58472;SDS011;44775;51.564;5.460;2023-03-20T02:46:45;34.55;;;17.35;;
58472;SDS011;44775;51.564;5.460;2023-03-20T02:54:51;37.20;;;17.23;;
58472;SDS011;44775;51.564;5.460;2023-03-20T03:02:42;37.25;;;17.23;;
58472;SDS011;44775;51.564;5.460;2023-03-20T03:05:20;37.72;;;17.33;;
58472;SDS011;44775;51.564;5.460;2023-03-20T03:07:49;35.33;;;17.15;;
58472;SDS011;44775;51.564;5.460;2023-03-20T03:10:21;34.28;;;17.58;;
58472;SDS011;44775;51.564;5.460;2023-03-20T03:12:51;36.53;;;17.48;;
58472;SDS011;44775;51.564;5.460;2023-03-20T03:15:24;33.93;;;16.83;;
58472;SDS011;44775;51.564;5.460;2023-03-20T03:17:54;38.13;;;17.58;;
58472;SDS011;44775;51.564;5.460;2023-03-20T03:20:23;36.88;;;16.55;;
58472;SDS011;44775;51.564;5.460;2023-03-20T03:22:53;37.00;;;16.35;;
58472;SDS011;44775;51.564;5.460;2023-03-20T03:25:19;35.67;;;17.08;;
58472;SDS011;44775;51.564;5.460;2023-03-20T03:27:51;34.63;;;16.65;;
58472;SDS011;44775;51.564;5.460;2023-03-20T03:30:26;36.28;;;17.77;;
58472;SDS011;44775;51.564;5.460;2023-03-20T03:33:08;37.80;;;17.50;;
58472;SDS011;44775;51.564;5.460;2023-03-20T03:35:45;33.83;;;17.02;;
58472;SDS011;44775;51.564;5.460;2023-03-20T03:38:24;36.35;;;17.73;;
58472;SDS011;44775;51.564;5.460;2023-03-20T03:41:11;37.45;;;16.65;;
58472;SDS011;44775;51.564;5.460;2023-03-20T03:46:24;38.55;;;17.98;;
58472;SDS011;44775;51.564;5.460;2023-03-20T03:48:58;32.75;;;16.50;;
58472;SDS011;44775;51.564;5.460;2023-03-20T03:51:27;35.47;;;17.30;;
58472;SDS011;44775;51.564;5.460;2023-03-20T03:53:59;34.58;;;16.33;;
58472;SDS011;44775;51.564;5.460;2023-03-20T03:56:29;37.22;;;16.50;;
58472;SDS011;44775;51.564;5.460;2023-03-20T03:59:02;30.85;;;16.02;;
58472;SDS011;44775;51.564;5.460;2023-03-20T04:01:32;35.72;;;16.08;;
58472;SDS011;44775;51.564;5.460;2023-03-20T04:03:59;30.58;;;15.00;;
58472;SDS011;44775;51.564;5.460;2023-03-20T04:06:31;28.38;;;15.23;;
58472;SDS011;44775;51.564;5.460;2023-03-20T04:08:57;29.45;;;15.10;;
58472;SDS011;44775;51.564;5.460;2023-03-20T04:11:23;30.10;;;14.23;;
58472;SDS011;44775;51.564;5.460;2023-03-20T04:13:50;29.67;;;14.43;;
58472;SDS011;44775;51.564;5.460;2023-03-20T04:16:16;33.17;;;14.98;;
58472;SDS011;44775;51.564;5.460;2023-03-20T04:18:44;27.85;;;14.55;;
58472;SDS011;44775;51.564;5.460;2023-03-20T04:21:10;30.95;;;15.35;;
58472;SDS011;44775;51.564;5.460;2023-03-20T04:23:36;28.50;;;14.88;;
58472;SDS011;44775;51.564;5.460;2023-03-20T04:26:01;32.55;;;15.90;;
58472;SDS011;44775;51.564;5.460;2023-03-20T04:28:27;34.03;;;16.27;;
58472;SDS011;44775;51.564;5.460;2023-03-20T04:30:54;28.50;;;14.35;;
58472;SDS011;44775;51.564;5.460;2023-03-20T04:33:20;35.72;;;15.90;;
58472;SDS011;44775;51.564;5.460;2023-03-20T04:35:46;33.80;;;16.13;;
58472;SDS011;44775;51.564;5.460;2023-03-20T04:38:11;30.75;;;16.30;;
58472;SDS011;44775;51.564;5.460;2023-03-20T04:40:37;33.92;;;17.33;;
58472;SDS011;44775;51.564;5.460;2023-03-20T04:43:02;31.75;;;15.45;;
58472;SDS011;44775;51.564;5.460;2023-03-20T04:45:28;30.38;;;16.13;;
58472;SDS011;44775;51.564;5.460;2023-03-20T04:47:53;35.20;;;16.65;;
58472;SDS011;44775;51.564;5.460;2023-03-20T04:50:18;35.17;;;15.85;;
58472;SDS011;44775;51.564;5.460;2023-03-20T04:52:44;33.60;;;16.70;;
58472;SDS011;44775;51.564;5.460;2023-03-20T04:55:10;29.27;;;14.90;;
58472;SDS011;44775;51.564;5.460;2023-03-20T04:57:35;32.70;;;16.30;;
58472;SDS011;44775;51.564;5.460;2023-03-20T05:00:00;29.20;;;16.08;;
58472;SDS011;44775;51.564;5.460;2023-03-20T05:02:25;30.95;;;15.23;;
58472;SDS011;44775;51.564;5.460;2023-03-20T05:04:51;31.15;;;16.20;;
58472;SDS011;44775;51.564;5.460;2023-03-20T05:07:16;29.00;;;13.82;;
58472;SDS011;44775;51.564;5.460;2023-03-20T05:09:42;28.88;;;13.73;;
58472;SDS011;44775;51.564;5.460;2023-03-20T05:12:07;34.55;;;17.23;;
58472;SDS011;44775;51.564;5.460;2023-03-20T05:14:33;31.40;;;15.68;;
58472;SDS011;44775;51.564;5.460;2023-03-20T05:16:58;32.20;;;15.25;;
58472;SDS011;44775;51.564;5.460;2023-03-20T05:19:24;29.73;;;15.27;;
58472;SDS011;44775;51.564;5.460;2023-03-20T05:21:49;29.15;;;15.57;;
58472;SDS011;44775;51.564;5.460;2023-03-20T05:24:15;31.73;;;15.65;;
58472;SDS011;44775;51.564;5.460;2023-03-20T05:26:40;30.23;;;16.23;;
58472;SDS011;44775;51.564;5.460;2023-03-20T05:29:06;32.97;;;15.45;;
58472;SDS011;44775;51.564;5.460;2023-03-20T05:31:31;30.85;;;14.63;;
58472;SDS011;44775;51.564;5.460;2023-03-20T05:33:56;29.05;;;14.93;;
58472;SDS011;44775;51.564;5.460;2023-03-20T05:36:22;29.95;;;14.18;;
58472;SDS011;44775;51.564;5.460;2023-03-20T05:38:47;28.55;;;14.70;;
58472;SDS011;44775;51.564;5.460;2023-03-20T05:41:12;26.10;;;14.23;;
58472;SDS011;44775;51.564;5.460;2023-03-20T05:43:38;32.05;;;14.75;;
58472;SDS011;44775;51.564;5.460;2023-03-20T05:46:03;28.60;;;15.18;;
58472;SDS011;44775;51.564;5.460;2023-03-20T05:48:28;31.27;;;15.27;;
58472;SDS011;44775;51.564;5.460;2023-03-20T05:50:54;27.92;;;13.68;;
58472;SDS011;44775;51.564;5.460;2023-03-20T05:53:19;29.70;;;14.95;;
58472;SDS011;44775;51.564;5.460;2023-03-20T05:55:45;32.83;;;15.27;;
58472;SDS011;44775;51.564;5.460;2023-03-20T05:58:10;31.33;;;13.65;;
58472;SDS011;44775;51.564;5.460;2023-03-20T06:00:36;28.20;;;11.95;;
58472;SDS011;44775;51.564;5.460;2023-03-20T06:03:02;27.85;;;13.52;;
58472;SDS011;44775;51.564;5.460;2023-03-20T06:05:28;27.15;;;13.07;;
58472;SDS011;44775;51.564;5.460;2023-03-20T06:07:53;32.90;;;13.77;;
58472;SDS011;44775;51.564;5.460;2023-03-20T06:10:18;30.10;;;14.70;;
58472;SDS011;44775;51.564;5.460;2023-03-20T06:12:44;29.85;;;13.57;;
58472;SDS011;44775;51.564;5.460;2023-03-20T06:15:10;24.80;;;12.98;;
58472;SDS011;44775;51.564;5.460;2023-03-20T06:17:36;23.70;;;11.85;;
58472;SDS011;44775;51.564;5.460;2023-03-20T06:20:01;27.55;;;12.85;;
58472;SDS011;44775;51.564;5.460;2023-03-20T06:22:27;23.50;;;12.27;;
58472;SDS011;44775;51.564;5.460;2023-03-20T06:24:52;25.52;;;12.32;;
58472;SDS011;44775;51.564;5.460;2023-03-20T06:27:18;27.52;;;13.57;;
58472;SDS011;44775;51.564;5.460;2023-03-20T06:29:43;25.65;;;11.52;;
58472;SDS011;44775;51.564;5.460;2023-03-20T06:32:08;28.13;;;12.02;;
58472;SDS011;44775;51.564;5.460;2023-03-20T06:34:36;23.58;;;12.30;;
58472;SDS011;44775;51.564;5.460;2023-03-20T06:37:02;21.75;;;11.45;;
58472;SDS011;44775;51.564;5.460;2023-03-20T06:39:27;24.65;;;11.77;;
58472;SDS011;44775;51.564;5.460;2023-03-20T06:41:52;24.65;;;12.63;;
58472;SDS011;44775;51.564;5.460;2023-03-20T06:44:18;24.40;;;12.40;;
58472;SDS011;44775;51.564;5.460;2023-03-20T06:46:43;25.90;;;12.50;;
58472;SDS011;44775;51.564;5.460;2023-03-20T06:49:08;27.88;;;11.30;;
58472;SDS011;44775;51.564;5.460;2023-03-20T06:51:34;23.63;;;11.35;;
58472;SDS011;44775;51.564;5.460;2023-03-20T06:53:59;28.42;;;11.57;;
58472;SDS011;44775;51.564;5.460;2023-03-20T06:56:24;26.98;;;12.23;;
58472;SDS011;44775;51.564;5.460;2023-03-20T06:58:50;20.95;;;11.05;;
58472;SDS011;44775;51.564;5.460;2023-03-20T07:01:15;25.67;;;11.48;;
58472;SDS011;44775;51.564;5.460;2023-03-20T07:03:43;24.33;;;11.32;;
58472;SDS011;44775;51.564;5.460;2023-03-20T07:06:09;23.73;;;11.70;;
58472;SDS011;44775;51.564;5.460;2023-03-20T07:08:36;22.50;;;11.52;;
58472;SDS011;44775;51.564;5.460;2023-03-20T07:11:02;24.45;;;11.77;;
58472;SDS011;44775;51.564;5.460;2023-03-20T07:13:28;24.30;;;12.80;;
58472;SDS011;44775;51.564;5.460;2023-03-20T07:15:54;21.65;;;11.65;;
58472;SDS011;44775;51.564;5.460;2023-03-20T07:18:19;24.30;;;11.90;;
58472;SDS011;44775;51.564;5.460;2023-03-20T07:20:45;22.80;;;11.25;;
58472;SDS011;44775;51.564;5.460;2023-03-20T07:23:10;23.90;;;12.32;;
58472;SDS011;44775;51.564;5.460;2023-03-20T07:25:36;23.15;;;11.27;;
58472;SDS011;44775;51.564;5.460;2023-03-20T07:28:01;28.17;;;12.27;;
58472;SDS011;44775;51.564;5.460;2023-03-20T07:30:26;24.73;;;11.77;;
58472;SDS011;44775;51.564;5.460;2023-03-20T07:32:52;23.55;;;11.25;;
58472;SDS011;44775;51.564;5.460;2023-03-20T07:35:17;23.38;;;10.82;;
58472;SDS011;44775;51.564;5.460;2023-03-20T07:37:43;22.30;;;9.30;;
58472;SDS011;44775;51.564;5.460;2023-03-20T07:40:09;24.50;;;11.43;;
58472;SDS011;44775;51.564;5.460;2023-03-20T07:42:35;24.05;;;10.77;;
58472;SDS011;44775;51.564;5.460;2023-03-20T07:45:00;22.42;;;10.57;;
58472;SDS011;44775;51.564;5.460;2023-03-20T07:47:26;24.13;;;10.95;;
58472;SDS011;44775;51.564;5.460;2023-03-20T07:49:51;23.55;;;11.15;;
58472;SDS011;44775;51.564;5.460;2023-03-20T07:52:16;21.90;;;10.48;;
58472;SDS011;44775;51.564;5.460;2023-03-20T07:54:42;26.35;;;10.65;;
58472;SDS011;44775;51.564;5.460;2023-03-20T07:57:07;20.95;;;10.80;;
58472;SDS011;44775;51.564;5.460;2023-03-20T07:59:32;23.35;;;11.38;;
58472;SDS011;44775;51.564;5.460;2023-03-20T08:01:58;20.27;;;10.07;;
58472;SDS011;44775;51.564;5.460;2023-03-20T08:04:23;23.80;;;10.77;;
58472;SDS011;44775;51.564;5.460;2023-03-20T08:06:48;23.08;;;10.77;;
58472;SDS011;44775;51.564;5.460;2023-03-20T08:09:14;23.30;;;11.35;;
58472;SDS011;44775;51.564;5.460;2023-03-20T08:11:40;22.30;;;10.30;;
58472;SDS011;44775;51.564;5.460;2023-03-20T08:14:05;23.73;;;11.40;;
58472;SDS011;44775;51.564;5.460;2023-03-20T08:16:30;19.90;;;9.93;;
58472;SDS011;44775;51.564;5.460;2023-03-20T08:18:56;30.08;;;14.63;;
58472;SDS011;44775;51.564;5.460;2023-03-20T08:23:51;25.48;;;10.35;;
58472;SDS011;44775;51.564;5.460;2023-03-20T08:26:16;26.27;;;10.45;;
58472;SDS011;44775;51.564;5.460;2023-03-20T08:28:41;18.33;;;9.45;;
58472;SDS011;44775;51.564;5.460;2023-03-20T08:31:07;28.30;;;11.63;;
58472;SDS011;44775;51.564;5.460;2023-03-20T08:33:33;25.45;;;13.75;;
58472;SDS011;44775;51.564;5.460;2023-03-20T08:35:59;22.90;;;12.70;;
58472;SDS011;44775;51.564;5.460;2023-03-20T08:38:24;27.48;;;14.00;;
58472;SDS011;44775;51.564;5.460;2023-03-20T08:40:50;25.88;;;13.07;;
58472;SDS011;44775;51.564;5.460;2023-03-20T08:43:15;22.55;;;9.27;;
58472;SDS011;44775;51.564;5.460;2023-03-20T08:45:41;25.10;;;11.82;;
58472;SDS011;44775;51.564;5.460;2023-03-20T08:48:06;25.08;;;10.50;;
58472;SDS011;44775;51.564;5.460;2023-03-20T08:50:32;19.52;;;10.05;;
58472;SDS011;44775;51.564;5.460;2023-03-20T08:52:57;19.92;;;8.48;;
58472;SDS011;44775;51.564;5.460;2023-03-20T08:55:23;19.67;;;8.23;;
58472;SDS011;44775;51.564;5.460;2023-03-20T08:57:48;21.00;;;8.93;;
58472;SDS011;44775;51.564;5.460;2023-03-20T09:00:14;15.32;;;6.60;;
58472;SDS011;44775;51.564;5.460;2023-03-20T09:02:40;23.33;;;9.50;;
58472;SDS011;44775;51.564;5.460;2023-03-20T09:05:07;20.95;;;8.80;;
58472;SDS011;44775;51.564;5.460;2023-03-20T09:07:33;21.65;;;9.02;;
58472;SDS011;44775;51.564;5.460;2023-03-20T09:09:59;21.27;;;8.80;;
58472;SDS011;44775;51.564;5.460;2023-03-20T09:12:24;22.70;;;9.60;;
58472;SDS011;44775;51.564;5.460;2023-03-20T09:14:49;19.60;;;8.35;;
58472;SDS011;44775;51.564;5.460;2023-03-20T09:17:15;23.55;;;8.90;;
58472;SDS011;44775;51.564;5.460;2023-03-20T09:19:40;21.40;;;8.70;;
58472;SDS011;44775;51.564;5.460;2023-03-20T09:22:09;23.70;;;9.68;;
58472;SDS011;44775;51.564;5.460;2023-03-20T09:24:37;20.95;;;9.77;;
58472;SDS011;44775;51.564;5.460;2023-03-20T09:27:02;20.63;;;10.07;;
58472;SDS011;44775;51.564;5.460;2023-03-20T09:29:27;26.55;;;9.55;;
58472;SDS011;44775;51.564;5.460;2023-03-20T09:31:53;20.77;;;9.75;;
58472;SDS011;44775;51.564;5.460;2023-03-20T09:34:18;19.15;;;9.38;;
58472;SDS011;44775;51.564;5.460;2023-03-20T09:36:44;21.70;;;9.55;;
58472;SDS011;44775;51.564;5.460;2023-03-20T09:39:09;21.00;;;9.60;;
58472;SDS011;44775;51.564;5.460;2023-03-20T09:41:35;20.98;;;10.18;;
58472;SDS011;44775;51.564;5.460;2023-03-20T09:44:07;23.00;;;9.90;;
58472;SDS011;44775;51.564;5.460;2023-03-20T09:51:59;24.42;;;10.00;;
58472;SDS011;44775;51.564;5.460;2023-03-20T09:54:37;28.17;;;11.80;;
58472;SDS011;44775;51.564;5.460;2023-03-20T09:57:12;20.88;;;10.25;;
58472;SDS011;44775;51.564;5.460;2023-03-20T09:59:44;20.40;;;9.35;;
58472;SDS011;44775;51.564;5.460;2023-03-20T10:02:15;22.15;;;9.80;;
58472;SDS011;44775;51.564;5.460;2023-03-20T10:04:48;21.70;;;9.68;;
58472;SDS011;44775;51.564;5.460;2023-03-20T10:07:17;21.15;;;10.50;;
58472;SDS011;44775;51.564;5.460;2023-03-20T10:09:43;19.58;;;8.80;;
58472;SDS011;44775;51.564;5.460;2023-03-20T10:12:16;19.70;;;9.35;;
58472;SDS011;44775;51.564;5.460;2023-03-20T10:20:12;19.48;;;9.43;;
58472;SDS011;44775;51.564;5.460;2023-03-20T10:22:47;17.98;;;8.77;;
58472;SDS011;44775;51.564;5.460;2023-03-20T10:28:12;18.17;;;9.18;;
58472;SDS011;44775;51.564;5.460;2023-03-20T10:30:58;22.02;;;8.82;;
58472;SDS011;44775;51.564;5.460;2023-03-20T10:42:00;20.20;;;8.23;;
58472;SDS011;44775;51.564;5.460;2023-03-20T10:44:32;20.63;;;8.23;;
58472;SDS011;44775;51.564;5.460;2023-03-20T10:47:02;13.00;;;7.10;;
58472;SDS011;44775;51.564;5.460;2023-03-20T10:49:37;21.10;;;8.52;;
58472;SDS011;44775;51.564;5.460;2023-03-20T10:52:11;17.77;;;6.85;;
58472;SDS011;44775;51.564;5.460;2023-03-20T10:54:41;17.30;;;8.05;;
58472;SDS011;44775;51.564;5.460;2023-03-20T10:57:28;17.13;;;7.53;;
58472;SDS011;44775;51.564;5.460;2023-03-20T10:59:57;15.02;;;7.53;;
58472;SDS011;44775;51.564;5.460;2023-03-20T11:02:27;19.92;;;8.63;;
58472;SDS011;44775;51.564;5.460;2023-03-20T11:04:55;15.27;;;7.15;;
58472;SDS011;44775;51.564;5.460;2023-03-20T11:12:32;15.07;;;7.05;;
58472;SDS011;44775;51.564;5.460;2023-03-20T11:15:27;16.27;;;7.80;;
58472;SDS011;44775;51.564;5.460;2023-03-20T11:20:34;17.52;;;8.60;;
58472;SDS011;44775;51.564;5.460;2023-03-20T11:23:03;16.30;;;7.18;;
58472;SDS011;44775;51.564;5.460;2023-03-20T11:25:36;17.85;;;8.23;;
58472;SDS011;44775;51.564;5.460;2023-03-20T11:28:18;19.67;;;7.65;;
58472;SDS011;44775;51.564;5.460;2023-03-20T11:30:45;19.05;;;7.90;;
58472;SDS011;44775;51.564;5.460;2023-03-20T11:33:11;21.35;;;8.05;;
58472;SDS011;44775;51.564;5.460;2023-03-20T11:35:36;20.23;;;8.05;;
58472;SDS011;44775;51.564;5.460;2023-03-20T11:38:09;17.40;;;7.00;;
58472;SDS011;44775;51.564;5.460;2023-03-20T11:40:39;18.40;;;7.45;;
58472;SDS011;44775;51.564;5.460;2023-03-20T11:43:14;16.05;;;5.82;;
58472;SDS011;44775;51.564;5.460;2023-03-20T11:45:50;19.00;;;7.20;;
58472;SDS011;44775;51.564;5.460;2023-03-20T11:48:24;16.60;;;6.80;;
58472;SDS011;44775;51.564;5.460;2023-03-20T11:51:02;14.23;;;6.32;;
58472;SDS011;44775;51.564;5.460;2023-03-20T11:58:38;16.40;;;6.70;;
58472;SDS011;44775;51.564;5.460;2023-03-20T12:01:28;20.27;;;6.93;;
58472;SDS011;44775;51.564;5.460;2023-03-20T12:04:01;21.10;;;7.68;;
58472;SDS011;44775;51.564;5.460;2023-03-20T12:06:41;18.80;;;7.50;;
58472;SDS011;44775;51.564;5.460;2023-03-20T12:12:04;20.73;;;7.72;;
58472;SDS011;44775;51.564;5.460;2023-03-20T12:14:34;16.95;;;7.00;;
58472;SDS011;44775;51.564;5.460;2023-03-20T12:19:53;18.67;;;6.93;;
58472;SDS011;44775;51.564;5.460;2023-03-20T12:22:24;20.48;;;7.32;;
58472;SDS011;44775;51.564;5.460;2023-03-20T12:28:02;19.33;;;7.47;;
58472;SDS011;44775;51.564;5.460;2023-03-20T12:30:37;22.27;;;7.90;;
58472;SDS011;44775;51.564;5.460;2023-03-20T12:33:39;15.95;;;7.20;;
58472;SDS011;44775;51.564;5.460;2023-03-20T12:36:14;18.50;;;7.97;;
58472;SDS011;44775;51.564;5.460;2023-03-20T12:38:49;17.17;;;7.50;;
58472;SDS011;44775;51.564;5.460;2023-03-20T12:42:00;19.75;;;8.00;;
58472;SDS011;44775;51.564;5.460;2023-03-20T12:44:25;18.20;;;7.53;;
58472;SDS011;44775;51.564;5.460;2023-03-20T12:47:05;22.23;;;8.20;;
58472;SDS011;44775;51.564;5.460;2023-03-20T12:52:12;19.05;;;8.35;;
58472;SDS011;44775;51.564;5.460;2023-03-20T12:57:35;17.40;;;7.50;;
58472;SDS011;44775;51.564;5.460;2023-03-20T13:00:23;19.13;;;8.73;;
58472;SDS011;44775;51.564;5.460;2023-03-20T13:05:36;16.15;;;8.32;;
58472;SDS011;44775;51.564;5.460;2023-03-20T13:13:52;18.90;;;8.55;;
58472;SDS011;44775;51.564;5.460;2023-03-20T13:16:31;14.90;;;7.90;;
58472;SDS011;44775;51.564;5.460;2023-03-20T13:19:17;20.48;;;8.55;;
58472;SDS011;44775;51.564;5.460;2023-03-20T13:25:02;20.50;;;7.63;;
58472;SDS011;44775;51.564;5.460;2023-03-20T13:27:49;19.95;;;7.55;;
58472;SDS011;44775;51.564;5.460;2023-03-20T13:30:30;15.70;;;7.30;;
58472;SDS011;44775;51.564;5.460;2023-03-20T13:35:49;13.75;;;6.95;;
58472;SDS011;44775;51.564;5.460;2023-03-20T13:38:20;17.38;;;7.05;;
58472;SDS011;44775;51.564;5.460;2023-03-20T13:40:52;17.00;;;6.80;;
58472;SDS011;44775;51.564;5.460;2023-03-20T13:46:13;19.23;;;6.93;;
58472;SDS011;44775;51.564;5.460;2023-03-20T13:48:44;17.25;;;6.82;;
58472;SDS011;44775;51.564;5.460;2023-03-20T13:51:19;17.25;;;6.25;;
58472;SDS011;44775;51.564;5.460;2023-03-20T14:02:26;18.17;;;7.18;;
58472;SDS011;44775;51.564;5.460;2023-03-20T14:07:28;15.07;;;5.63;;
58472;SDS011;44775;51.564;5.460;2023-03-20T14:09:57;13.77;;;5.65;;
58472;SDS011;44775;51.564;5.460;2023-03-20T14:12:52;12.80;;;5.93;;
58472;SDS011;44775;51.564;5.460;2023-03-20T14:15:20;16.98;;;6.50;;
58472;SDS011;44775;51.564;5.460;2023-03-20T14:17:47;14.88;;;6.22;;
58472;SDS011;44775;51.564;5.460;2023-03-20T14:23:00;16.60;;;6.03;;
58472;SDS011;44775;51.564;5.460;2023-03-20T14:25:26;14.52;;;6.38;;
58472;SDS011;44775;51.564;5.460;2023-03-20T14:30:36;14.27;;;5.80;;
58472;SDS011;44775;51.564;5.460;2023-03-20T14:35:37;17.05;;;7.03;;
58472;SDS011;44775;51.564;5.460;2023-03-20T14:43:57;20.63;;;7.68;;
58472;SDS011;44775;51.564;5.460;2023-03-20T14:46:38;19.00;;;7.35;;
58472;SDS011;44775;51.564;5.460;2023-03-20T14:49:31;16.85;;;6.82;;
58472;SDS011;44775;51.564;5.460;2023-03-20T14:52:13;18.77;;;7.00;;
58472;SDS011;44775;51.564;5.460;2023-03-20T14:55:13;16.20;;;7.25;;
58472;SDS011;44775;51.564;5.460;2023-03-20T14:58:03;15.82;;;6.72;;
58472;SDS011;44775;51.564;5.460;2023-03-20T15:00:34;17.25;;;6.90;;
58472;SDS011;44775;51.564;5.460;2023-03-20T15:03:09;13.45;;;6.45;;
58472;SDS011;44775;51.564;5.460;2023-03-20T15:05:38;16.42;;;6.72;;
58472;SDS011;44775;51.564;5.460;2023-03-20T15:08:13;16.55;;;6.97;;
58472;SDS011;44775;51.564;5.460;2023-03-20T15:10:46;17.15;;;7.40;;
58472;SDS011;44775;51.564;5.460;2023-03-20T15:13:15;16.05;;;7.00;;
58472;SDS011;44775;51.564;5.460;2023-03-20T15:15:52;16.38;;;7.43;;
58472;SDS011;44775;51.564;5.460;2023-03-20T15:18:23;24.13;;;8.40;;
58472;SDS011;44775;51.564;5.460;2023-03-20T15:20:50;18.40;;;7.57;;
58472;SDS011;44775;51.564;5.460;2023-03-20T15:23:16;16.35;;;7.22;;
58472;SDS011;44775;51.564;5.460;2023-03-20T15:25:42;22.45;;;6.97;;
58472;SDS011;44775;51.564;5.460;2023-03-20T15:28:13;13.65;;;7.10;;
58472;SDS011;44775;51.564;5.460;2023-03-20T15:30:42;12.10;;;5.90;;
58472;SDS011;44775;51.564;5.460;2023-03-20T15:33:15;17.42;;;7.15;;
58472;SDS011;44775;51.564;5.460;2023-03-20T15:35:44;14.95;;;6.95;;
58472;SDS011;44775;51.564;5.460;2023-03-20T15:38:09;15.82;;;6.57;;
58472;SDS011;44775;51.564;5.460;2023-03-20T15:40:39;18.35;;;6.50;;
58472;SDS011;44775;51.564;5.460;2023-03-20T15:43:10;12.55;;;5.90;;
58472;SDS011;44775;51.564;5.460;2023-03-20T15:45:38;16.52;;;6.13;;
58472;SDS011;44775;51.564;5.460;2023-03-20T15:48:07;17.25;;;6.00;;
58472;SDS011;44775;51.564;5.460;2023-03-20T15:50:37;18.10;;;6.95;;
58472;SDS011;44775;51.564;5.460;2023-03-20T15:53:04;19.05;;;6.40;;
58472;SDS011;44775;51.564;5.460;2023-03-20T15:55:35;17.75;;;6.45;;
58472;SDS011;44775;51.564;5.460;2023-03-20T15:58:02;17.40;;;5.78;;
58472;SDS011;44775;51.564;5.460;2023-03-20T16:00:32;17.10;;;5.65;;
58472;SDS011;44775;51.564;5.460;2023-03-20T16:03:04;15.60;;;5.97;;
58472;SDS011;44775;51.564;5.460;2023-03-20T16:08:11;14.93;;;6.30;;
58472;SDS011;44775;51.564;5.460;2023-03-20T16:10:45;18.90;;;6.80;;
58472;SDS011;44775;51.564;5.460;2023-03-20T16:13:11;18.52;;;7.68;;
58472;SDS011;44775;51.564;5.460;2023-03-20T16:15:38;20.85;;;6.88;;
58472;SDS011;44775;51.564;5.460;2023-03-20T16:18:04;16.83;;;6.28;;
58472;SDS011;44775;51.564;5.460;2023-03-20T16:20:38;16.88;;;6.85;;
58472;SDS011;44775;51.564;5.460;2023-03-20T16:23:09;18.88;;;7.10;;
58472;SDS011;44775;51.564;5.460;2023-03-20T16:25:35;18.88;;;6.95;;
58472;SDS011;44775;51.564;5.460;2023-03-20T16:28:02;15.88;;;6.57;;
58472;SDS011;44775;51.564;5.460;2023-03-20T16:30:32;18.92;;;7.15;;
58472;SDS011;44775;51.564;5.460;2023-03-20T16:32:59;20.23;;;6.70;;
58472;SDS011;44775;51.564;5.460;2023-03-20T16:35:31;19.27;;;7.75;;
58472;SDS011;44775;51.564;5.460;2023-03-20T16:38:16;17.60;;;6.75;;
58472;SDS011;44775;51.564;5.460;2023-03-20T16:40:48;16.60;;;6.82;;
58472;SDS011;44775;51.564;5.460;2023-03-20T16:43:20;14.32;;;6.25;;
58472;SDS011;44775;51.564;5.460;2023-03-20T16:45:53;20.55;;;6.70;;
58472;SDS011;44775;51.564;5.460;2023-03-20T16:48:23;17.40;;;7.00;;